Terminal Aerodrome Forecast
Issued by NWS

Home | Current Version | Previous Version | Text Only | Print | Product List | Glossary On
Versions: 1 2 3 4 5 6 7 8 9 10 11 12 13 14 15 16 17 18 19 20 21 22 23 24 25 26 27 28 29 30 31 32
000
FTUS43 KLOT 251900 AAA
TAFORD
TAF AMD
KORD 251944Z 2520/2624 21012G20KT P6SM SCT030 BKN060
      TEMPO 2520/2524 BKN025
     FM260100 19010KT P6SM VCSH SCT030 OVC080
      TEMPO 2605/2609 4SM TSRA OVC040CB
     FM260900 22009KT 6SM BR BKN040
     FM261300 23007KT P6SM BKN040
     FM261800 25006KT P6SM BKN130=

USA.gov is the U.S. government's official web portal to all federal, state and local government web resources and services.